sensor_id;sensor_type;location;lat;lon;timestamp;temperature;humidity
42743;DHT22;28397;44.552;-0.848;2023-11-19T00:00:11;11.90;99.90
42743;DHT22;28397;44.552;-0.848;2023-11-19T00:02:38;12.00;99.90
42743;DHT22;28397;44.552;-0.848;2023-11-19T00:05:04;12.00;99.90
42743;DHT22;28397;44.552;-0.848;2023-11-19T00:07:37;12.10;99.90
42743;DHT22;28397;44.552;-0.848;2023-11-19T00:10:08;12.10;99.90
42743;DHT22;28397;44.552;-0.848;2023-11-19T00:12:36;12.10;99.90
42743;DHT22;28397;44.552;-0.848;2023-11-19T00:15:02;12.10;99.90
42743;DHT22;28397;44.552;-0.848;2023-11-19T00:17:28;12.00;99.90
42743;DHT22;28397;44.552;-0.848;2023-11-19T00:19:53;12.10;99.90
42743;DHT22;28397;44.552;-0.848;2023-11-19T00:22:19;12.20;99.90
42743;DHT22;28397;44.552;-0.848;2023-11-19T00:24:47;12.40;99.90
42743;DHT22;28397;44.552;-0.848;2023-11-19T00:27:12;12.50;99.90
42743;DHT22;28397;44.552;-0.848;2023-11-19T00:29:38;12.60;99.90
42743;DHT22;28397;44.552;-0.848;2023-11-19T00:32:04;12.70;99.90
42743;DHT22;28397;44.552;-0.848;2023-11-19T00:34:31;12.70;99.90
42743;DHT22;28397;44.552;-0.848;2023-11-19T00:36:56;12.70;99.90
42743;DHT22;28397;44.552;-0.848;2023-11-19T00:39:22;12.80;99.90
42743;DHT22;28397;44.552;-0.848;2023-11-19T00:41:48;12.80;99.90
42743;DHT22;28397;44.552;-0.848;2023-11-19T00:44:13;12.80;99.90
42743;DHT22;28397;44.552;-0.848;2023-11-19T00:46:39;12.80;99.90
42743;DHT22;28397;44.552;-0.848;2023-11-19T00:49:05;12.70;99.90
42743;DHT22;28397;44.552;-0.848;2023-11-19T00:51:31;12.60;99.90
42743;DHT22;28397;44.552;-0.848;2023-11-19T00:53:57;12.50;99.90
42743;DHT22;28397;44.552;-0.848;2023-11-19T00:56:24;12.40;99.90
42743;DHT22;28397;44.552;-0.848;2023-11-19T00:58:50;12.30;99.90
42743;DHT22;28397;44.552;-0.848;2023-11-19T01:01:15;12.20;99.90
42743;DHT22;28397;44.552;-0.848;2023-11-19T01:03:41;12.10;99.90
42743;DHT22;28397;44.552;-0.848;2023-11-19T01:06:07;12.10;99.90
42743;DHT22;28397;44.552;-0.848;2023-11-19T01:08:33;12.10;99.90
42743;DHT22;28397;44.552;-0.848;2023-11-19T01:11:01;12.00;99.90
42743;DHT22;28397;44.552;-0.848;2023-11-19T01:13:27;12.00;99.90
42743;DHT22;28397;44.552;-0.848;2023-11-19T01:15:53;11.90;99.90
42743;DHT22;28397;44.552;-0.848;2023-11-19T01:18:19;11.90;99.90
42743;DHT22;28397;44.552;-0.848;2023-11-19T01:20:44;11.90;99.90
42743;DHT22;28397;44.552;-0.848;2023-11-19T01:23:10;11.80;99.90
42743;DHT22;28397;44.552;-0.848;2023-11-19T01:25:36;11.80;99.90
42743;DHT22;28397;44.552;-0.848;2023-11-19T01:28:03;11.90;99.90
42743;DHT22;28397;44.552;-0.848;2023-11-19T01:30:30;11.90;99.90
42743;DHT22;28397;44.552;-0.848;2023-11-19T01:32:56;11.80;99.90
42743;DHT22;28397;44.552;-0.848;2023-11-19T01:35:21;11.80;99.90
42743;DHT22;28397;44.552;-0.848;2023-11-19T01:37:48;11.80;99.90
42743;DHT22;28397;44.552;-0.848;2023-11-19T01:40:20;11.80;99.90
42743;DHT22;28397;44.552;-0.848;2023-11-19T01:42:46;11.80;99.90
42743;DHT22;28397;44.552;-0.848;2023-11-19T01:45:28;11.80;99.90
42743;DHT22;28397;44.552;-0.848;2023-11-19T01:47:54;11.80;99.90
42743;DHT22;28397;44.552;-0.848;2023-11-19T01:50:21;11.80;99.90
42743;DHT22;28397;44.552;-0.848;2023-11-19T01:52:47;11.80;99.90
42743;DHT22;28397;44.552;-0.848;2023-11-19T01:55:13;11.80;99.90
42743;DHT22;28397;44.552;-0.848;2023-11-19T01:57:39;11.80;99.90
42743;DHT22;28397;44.552;-0.848;2023-11-19T02:00:07;11.80;99.90
42743;DHT22;28397;44.552;-0.848;2023-11-19T02:02:37;11.80;99.90
42743;DHT22;28397;44.552;-0.848;2023-11-19T02:05:03;12.00;99.90
42743;DHT22;28397;44.552;-0.848;2023-11-19T02:07:29;12.10;99.90
42743;DHT22;28397;44.552;-0.848;2023-11-19T02:09:55;12.30;99.90
42743;DHT22;28397;44.552;-0.848;2023-11-19T02:12:20;12.40;99.90
42743;DHT22;28397;44.552;-0.848;2023-11-19T02:14:46;12.50;99.90
42743;DHT22;28397;44.552;-0.848;2023-11-19T02:17:28;12.50;99.90
42743;DHT22;28397;44.552;-0.848;2023-11-19T02:19:54;12.60;99.90
42743;DHT22;28397;44.552;-0.848;2023-11-19T02:22:19;12.60;99.90
42743;DHT22;28397;44.552;-0.848;2023-11-19T02:24:47;12.70;99.90
42743;DHT22;28397;44.552;-0.848;2023-11-19T02:27:30;12.70;99.90
42743;DHT22;28397;44.552;-0.848;2023-11-19T02:29:57;12.70;99.90
42743;DHT22;28397;44.552;-0.848;2023-11-19T02:32:23;12.60;99.90
42743;DHT22;28397;44.552;-0.848;2023-11-19T02:34:52;12.50;99.90
42743;DHT22;28397;44.552;-0.848;2023-11-19T02:37:18;12.40;99.90
42743;DHT22;28397;44.552;-0.848;2023-11-19T02:39:44;12.30;99.90
42743;DHT22;28397;44.552;-0.848;2023-11-19T02:42:10;12.30;99.90
42743;DHT22;28397;44.552;-0.848;2023-11-19T02:44:36;12.20;99.90
42743;DHT22;28397;44.552;-0.848;2023-11-19T02:47:02;12.20;99.90
42743;DHT22;28397;44.552;-0.848;2023-11-19T02:49:28;12.10;99.90
42743;DHT22;28397;44.552;-0.848;2023-11-19T02:51:54;12.10;99.90
42743;DHT22;28397;44.552;-0.848;2023-11-19T02:54:20;12.10;99.90
42743;DHT22;28397;44.552;-0.848;2023-11-19T02:56:52;12.20;99.90
42743;DHT22;28397;44.552;-0.848;2023-11-19T02:59:21;12.10;99.90
42743;DHT22;28397;44.552;-0.848;2023-11-19T03:01:53;12.20;99.90
42743;DHT22;28397;44.552;-0.848;2023-11-19T03:04:19;12.20;99.90
42743;DHT22;28397;44.552;-0.848;2023-11-19T03:06:48;12.20;99.90
42743;DHT22;28397;44.552;-0.848;2023-11-19T03:09:14;12.20;99.90
42743;DHT22;28397;44.552;-0.848;2023-11-19T03:11:40;12.20;99.90
42743;DHT22;28397;44.552;-0.848;2023-11-19T03:14:05;12.20;99.90
42743;DHT22;28397;44.552;-0.848;2023-11-19T03:16:31;12.20;99.90
42743;DHT22;28397;44.552;-0.848;2023-11-19T03:18:57;12.30;99.90
42743;DHT22;28397;44.552;-0.848;2023-11-19T03:21:29;12.30;99.90
42743;DHT22;28397;44.552;-0.848;2023-11-19T03:23:55;12.30;99.90
42743;DHT22;28397;44.552;-0.848;2023-11-19T03:26:21;12.30;99.90
42743;DHT22;28397;44.552;-0.848;2023-11-19T03:28:47;12.30;99.90
42743;DHT22;28397;44.552;-0.848;2023-11-19T03:31:13;12.30;99.90
42743;DHT22;28397;44.552;-0.848;2023-11-19T03:33:39;12.30;99.90
42743;DHT22;28397;44.552;-0.848;2023-11-19T03:36:05;12.30;99.90
42743;DHT22;28397;44.552;-0.848;2023-11-19T03:38:31;12.40;99.90
42743;DHT22;28397;44.552;-0.848;2023-11-19T03:40:57;12.30;99.90
42743;DHT22;28397;44.552;-0.848;2023-11-19T03:43:23;12.40;99.90
42743;DHT22;28397;44.552;-0.848;2023-11-19T03:45:48;12.40;99.90
42743;DHT22;28397;44.552;-0.848;2023-11-19T03:48:14;12.40;99.90
42743;DHT22;28397;44.552;-0.848;2023-11-19T03:50:44;12.50;99.90
42743;DHT22;28397;44.552;-0.848;2023-11-19T03:53:11;12.70;99.90
42743;DHT22;28397;44.552;-0.848;2023-11-19T03:55:37;12.80;99.90
42743;DHT22;28397;44.552;-0.848;2023-11-19T03:58:02;12.90;99.90
42743;DHT22;28397;44.552;-0.848;2023-11-19T04:00:28;13.00;99.90
42743;DHT22;28397;44.552;-0.848;2023-11-19T04:02:53;13.00;99.90
42743;DHT22;28397;44.552;-0.848;2023-11-19T04:05:19;13.00;99.90
42743;DHT22;28397;44.552;-0.848;2023-11-19T04:07:45;13.10;99.90
42743;DHT22;28397;44.552;-0.848;2023-11-19T04:10:10;13.30;99.90
42743;DHT22;28397;44.552;-0.848;2023-11-19T04:12:36;13.30;99.90
42743;DHT22;28397;44.552;-0.848;2023-11-19T04:15:02;13.30;99.90
42743;DHT22;28397;44.552;-0.848;2023-11-19T04:17:28;13.20;99.90
42743;DHT22;28397;44.552;-0.848;2023-11-19T04:19:53;13.10;99.90
42743;DHT22;28397;44.552;-0.848;2023-11-19T04:22:19;13.10;99.90
42743;DHT22;28397;44.552;-0.848;2023-11-19T04:24:45;13.00;99.90
42743;DHT22;28397;44.552;-0.848;2023-11-19T04:27:11;12.90;99.90
42743;DHT22;28397;44.552;-0.848;2023-11-19T04:29:36;12.90;99.90
42743;DHT22;28397;44.552;-0.848;2023-11-19T04:32:02;12.80;99.90
42743;DHT22;28397;44.552;-0.848;2023-11-19T04:34:28;12.80;99.90
42743;DHT22;28397;44.552;-0.848;2023-11-19T04:36:53;12.80;99.90
42743;DHT22;28397;44.552;-0.848;2023-11-19T04:39:19;12.70;99.90
42743;DHT22;28397;44.552;-0.848;2023-11-19T04:41:49;12.70;99.90
42743;DHT22;28397;44.552;-0.848;2023-11-19T04:44:16;12.70;99.90
42743;DHT22;28397;44.552;-0.848;2023-11-19T04:46:42;12.70;99.90
42743;DHT22;28397;44.552;-0.848;2023-11-19T04:49:11;12.70;99.90
42743;DHT22;28397;44.552;-0.848;2023-11-19T04:51:44;12.70;99.90
42743;DHT22;28397;44.552;-0.848;2023-11-19T04:54:12;12.70;99.90
42743;DHT22;28397;44.552;-0.848;2023-11-19T04:56:38;12.70;99.90
42743;DHT22;28397;44.552;-0.848;2023-11-19T04:59:06;12.70;99.90
42743;DHT22;28397;44.552;-0.848;2023-11-19T05:01:35;12.70;99.90
42743;DHT22;28397;44.552;-0.848;2023-11-19T05:04:01;12.70;99.90
42743;DHT22;28397;44.552;-0.848;2023-11-19T05:06:30;12.70;99.90
42743;DHT22;28397;44.552;-0.848;2023-11-19T05:08:56;12.70;99.90
42743;DHT22;28397;44.552;-0.848;2023-11-19T05:11:22;12.70;99.90
42743;DHT22;28397;44.552;-0.848;2023-11-19T05:13:48;12.70;99.90
42743;DHT22;28397;44.552;-0.848;2023-11-19T05:16:14;12.70;99.90
42743;DHT22;28397;44.552;-0.848;2023-11-19T05:18:41;12.70;99.90
42743;DHT22;28397;44.552;-0.848;2023-11-19T05:21:07;12.70;99.90
42743;DHT22;28397;44.552;-0.848;2023-11-19T05:23:33;12.70;99.90
42743;DHT22;28397;44.552;-0.848;2023-11-19T05:26:02;12.70;99.90
42743;DHT22;28397;44.552;-0.848;2023-11-19T05:28:27;12.70;99.90
42743;DHT22;28397;44.552;-0.848;2023-11-19T05:30:53;12.80;99.90
42743;DHT22;28397;44.552;-0.848;2023-11-19T05:33:19;12.80;99.90
42743;DHT22;28397;44.552;-0.848;2023-11-19T05:35:44;12.90;99.90
42743;DHT22;28397;44.552;-0.848;2023-11-19T05:38:10;13.00;99.90
42743;DHT22;28397;44.552;-0.848;2023-11-19T05:40:36;13.10;99.90
42743;DHT22;28397;44.552;-0.848;2023-11-19T05:43:04;13.20;99.90
42743;DHT22;28397;44.552;-0.848;2023-11-19T05:45:29;13.30;99.90
42743;DHT22;28397;44.552;-0.848;2023-11-19T05:47:55;13.30;99.90
42743;DHT22;28397;44.552;-0.848;2023-11-19T05:50:20;13.40;99.90
42743;DHT22;28397;44.552;-0.848;2023-11-19T05:52:46;13.50;99.90
42743;DHT22;28397;44.552;-0.848;2023-11-19T05:55:12;13.50;99.90
42743;DHT22;28397;44.552;-0.848;2023-11-19T05:57:39;13.50;99.90
42743;DHT22;28397;44.552;-0.848;2023-11-19T06:00:06;13.60;99.90
42743;DHT22;28397;44.552;-0.848;2023-11-19T06:02:34;13.60;99.90
42743;DHT22;28397;44.552;-0.848;2023-11-19T06:05:00;13.60;99.90
42743;DHT22;28397;44.552;-0.848;2023-11-19T06:07:25;13.60;99.90
42743;DHT22;28397;44.552;-0.848;2023-11-19T06:09:51;13.50;99.90
42743;DHT22;28397;44.552;-0.848;2023-11-19T06:12:17;13.50;99.90
42743;DHT22;28397;44.552;-0.848;2023-11-19T06:14:43;13.40;99.90
42743;DHT22;28397;44.552;-0.848;2023-11-19T06:17:08;13.40;99.90
42743;DHT22;28397;44.552;-0.848;2023-11-19T06:19:36;13.30;99.90
42743;DHT22;28397;44.552;-0.848;2023-11-19T06:22:03;13.30;99.90
42743;DHT22;28397;44.552;-0.848;2023-11-19T06:24:29;13.30;99.90
42743;DHT22;28397;44.552;-0.848;2023-11-19T06:26:54;13.30;99.90
42743;DHT22;28397;44.552;-0.848;2023-11-19T06:29:20;13.20;99.90
42743;DHT22;28397;44.552;-0.848;2023-11-19T06:31:46;13.20;99.90
42743;DHT22;28397;44.552;-0.848;2023-11-19T06:34:15;13.20;99.90
42743;DHT22;28397;44.552;-0.848;2023-11-19T06:36:41;13.20;99.90
42743;DHT22;28397;44.552;-0.848;2023-11-19T06:39:09;13.20;99.90
42743;DHT22;28397;44.552;-0.848;2023-11-19T06:41:36;13.20;99.90
42743;DHT22;28397;44.552;-0.848;2023-11-19T06:44:03;13.20;99.90
42743;DHT22;28397;44.552;-0.848;2023-11-19T06:46:30;13.20;99.90
42743;DHT22;28397;44.552;-0.848;2023-11-19T06:48:56;13.20;99.90
42743;DHT22;28397;44.552;-0.848;2023-11-19T06:51:22;13.20;99.90
42743;DHT22;28397;44.552;-0.848;2023-11-19T06:53:50;13.20;99.90
42743;DHT22;28397;44.552;-0.848;2023-11-19T06:56:22;13.20;99.90
42743;DHT22;28397;44.552;-0.848;2023-11-19T06:58:49;13.20;99.90
42743;DHT22;28397;44.552;-0.848;2023-11-19T07:01:18;13.20;99.90
42743;DHT22;28397;44.552;-0.848;2023-11-19T07:03:45;13.20;99.90
42743;DHT22;28397;44.552;-0.848;2023-11-19T07:06:11;13.30;99.90
42743;DHT22;28397;44.552;-0.848;2023-11-19T07:08:43;13.30;99.90
42743;DHT22;28397;44.552;-0.848;2023-11-19T07:11:10;13.20;99.90
42743;DHT22;28397;44.552;-0.848;2023-11-19T07:13:37;13.30;99.90
42743;DHT22;28397;44.552;-0.848;2023-11-19T07:16:03;13.20;99.90
42743;DHT22;28397;44.552;-0.848;2023-11-19T07:18:29;13.20;99.90
42743;DHT22;28397;44.552;-0.848;2023-11-19T07:20:55;13.30;99.90
42743;DHT22;28397;44.552;-0.848;2023-11-19T07:23:20;13.40;99.90
42743;DHT22;28397;44.552;-0.848;2023-11-19T07:25:47;13.50;99.90
42743;DHT22;28397;44.552;-0.848;2023-11-19T07:28:13;13.60;99.90
42743;DHT22;28397;44.552;-0.848;2023-11-19T07:30:39;13.70;99.90
42743;DHT22;28397;44.552;-0.848;2023-11-19T07:33:05;13.70;99.90
42743;DHT22;28397;44.552;-0.848;2023-11-19T07:35:32;13.70;99.90
42743;DHT22;28397;44.552;-0.848;2023-11-19T07:37:58;13.80;99.90
42743;DHT22;28397;44.552;-0.848;2023-11-19T07:40:24;13.80;99.90
42743;DHT22;28397;44.552;-0.848;2023-11-19T07:42:50;13.90;99.90
42743;DHT22;28397;44.552;-0.848;2023-11-19T07:45:16;13.90;99.90
42743;DHT22;28397;44.552;-0.848;2023-11-19T07:47:43;13.90;99.90
42743;DHT22;28397;44.552;-0.848;2023-11-19T07:50:10;14.00;99.90
42743;DHT22;28397;44.552;-0.848;2023-11-19T07:52:37;13.90;99.90
42743;DHT22;28397;44.552;-0.848;2023-11-19T07:55:03;13.80;99.90
42743;DHT22;28397;44.552;-0.848;2023-11-19T07:57:30;13.70;99.90
42743;DHT22;28397;44.552;-0.848;2023-11-19T07:59:57;13.70;99.90
42743;DHT22;28397;44.552;-0.848;2023-11-19T08:02:23;13.60;99.90
42743;DHT22;28397;44.552;-0.848;2023-11-19T08:04:49;13.60;99.90
42743;DHT22;28397;44.552;-0.848;2023-11-19T08:07:20;13.60;99.90
42743;DHT22;28397;44.552;-0.848;2023-11-19T08:09:46;13.50;99.90
42743;DHT22;28397;44.552;-0.848;2023-11-19T08:12:12;13.50;99.90
42743;DHT22;28397;44.552;-0.848;2023-11-19T08:14:40;13.50;99.90
42743;DHT22;28397;44.552;-0.848;2023-11-19T08:17:05;13.60;99.90
42743;DHT22;28397;44.552;-0.848;2023-11-19T08:19:32;13.60;99.90
42743;DHT22;28397;44.552;-0.848;2023-11-19T08:21:57;13.60;99.90
42743;DHT22;28397;44.552;-0.848;2023-11-19T08:24:23;13.60;99.90
42743;DHT22;28397;44.552;-0.848;2023-11-19T08:26:49;13.60;99.90
42743;DHT22;28397;44.552;-0.848;2023-11-19T08:29:14;13.60;99.90
42743;DHT22;28397;44.552;-0.848;2023-11-19T08:31:40;13.70;99.90
42743;DHT22;28397;44.552;-0.848;2023-11-19T08:34:06;13.70;99.90
42743;DHT22;28397;44.552;-0.848;2023-11-19T08:36:34;13.70;99.90
42743;DHT22;28397;44.552;-0.848;2023-11-19T08:39:00;13.80;99.90
42743;DHT22;28397;44.552;-0.848;2023-11-19T08:41:26;13.80;99.90
42743;DHT22;28397;44.552;-0.848;2023-11-19T08:43:52;13.90;99.90
42743;DHT22;28397;44.552;-0.848;2023-11-19T08:46:18;13.80;99.90
42743;DHT22;28397;44.552;-0.848;2023-11-19T08:48:44;13.90;99.90
42743;DHT22;28397;44.552;-0.848;2023-11-19T08:51:09;13.90;99.90
42743;DHT22;28397;44.552;-0.848;2023-11-19T08:53:35;13.90;99.90
42743;DHT22;28397;44.552;-0.848;2023-11-19T08:56:01;14.00;99.90
42743;DHT22;28397;44.552;-0.848;2023-11-19T08:58:28;14.00;99.90
42743;DHT22;28397;44.552;-0.848;2023-11-19T09:00:54;14.00;99.90
42743;DHT22;28397;44.552;-0.848;2023-11-19T09:03:19;14.10;99.90
42743;DHT22;28397;44.552;-0.848;2023-11-19T09:05:46;14.10;99.90
42743;DHT22;28397;44.552;-0.848;2023-11-19T09:08:12;14.30;99.90
42743;DHT22;28397;44.552;-0.848;2023-11-19T09:10:37;14.40;99.90
42743;DHT22;28397;44.552;-0.848;2023-11-19T09:13:03;14.50;99.90
42743;DHT22;28397;44.552;-0.848;2023-11-19T09:15:29;14.60;99.90
42743;DHT22;28397;44.552;-0.848;2023-11-19T09:17:55;14.70;99.90
42743;DHT22;28397;44.552;-0.848;2023-11-19T09:20:21;14.70;99.90
42743;DHT22;28397;44.552;-0.848;2023-11-19T09:22:47;14.80;99.90
42743;DHT22;28397;44.552;-0.848;2023-11-19T09:25:13;14.80;99.90
42743;DHT22;28397;44.552;-0.848;2023-11-19T09:27:43;14.90;99.90
42743;DHT22;28397;44.552;-0.848;2023-11-19T09:30:09;14.90;99.90
42743;DHT22;28397;44.552;-0.848;2023-11-19T09:32:35;14.90;99.90
42743;DHT22;28397;44.552;-0.848;2023-11-19T09:35:00;14.90;99.90
42743;DHT22;28397;44.552;-0.848;2023-11-19T09:37:28;15.00;99.90
42743;DHT22;28397;44.552;-0.848;2023-11-19T09:39:53;15.00;99.90
42743;DHT22;28397;44.552;-0.848;2023-11-19T09:42:19;14.90;99.90
42743;DHT22;28397;44.552;-0.848;2023-11-19T09:44:47;14.80;99.90
42743;DHT22;28397;44.552;-0.848;2023-11-19T09:47:14;14.80;99.90
42743;DHT22;28397;44.552;-0.848;2023-11-19T09:49:39;14.80;99.90
42743;DHT22;28397;44.552;-0.848;2023-11-19T09:52:05;14.70;99.90
42743;DHT22;28397;44.552;-0.848;2023-11-19T09:54:31;14.70;99.90
42743;DHT22;28397;44.552;-0.848;2023-11-19T09:56:58;14.70;99.90
42743;DHT22;28397;44.552;-0.848;2023-11-19T09:59:29;14.70;99.90
42743;DHT22;28397;44.552;-0.848;2023-11-19T10:01:56;14.70;99.90
42743;DHT22;28397;44.552;-0.848;2023-11-19T10:04:22;14.80;99.90
42743;DHT22;28397;44.552;-0.848;2023-11-19T10:06:50;14.80;99.90
42743;DHT22;28397;44.552;-0.848;2023-11-19T10:09:16;14.80;99.90
42743;DHT22;28397;44.552;-0.848;2023-11-19T10:11:42;14.90;99.90
42743;DHT22;28397;44.552;-0.848;2023-11-19T10:14:08;14.90;99.90
42743;DHT22;28397;44.552;-0.848;2023-11-19T10:16:34;14.90;99.90
42743;DHT22;28397;44.552;-0.848;2023-11-19T10:19:00;15.00;99.90
42743;DHT22;28397;44.552;-0.848;2023-11-19T10:21:26;15.00;99.90
42743;DHT22;28397;44.552;-0.848;2023-11-19T10:23:55;15.00;99.90
42743;DHT22;28397;44.552;-0.848;2023-11-19T10:26:23;15.10;99.90
42743;DHT22;28397;44.552;-0.848;2023-11-19T10:28:49;15.10;99.90
42743;DHT22;28397;44.552;-0.848;2023-11-19T10:31:16;15.10;99.90
42743;DHT22;28397;44.552;-0.848;2023-11-19T10:33:43;15.20;99.90
42743;DHT22;28397;44.552;-0.848;2023-11-19T10:36:11;15.20;99.90
42743;DHT22;28397;44.552;-0.848;2023-11-19T10:38:38;15.20;99.90
42743;DHT22;28397;44.552;-0.848;2023-11-19T10:41:04;15.30;99.90
42743;DHT22;28397;44.552;-0.848;2023-11-19T10:43:31;15.40;99.90
42743;DHT22;28397;44.552;-0.848;2023-11-19T10:46:13;15.40;99.90
42743;DHT22;28397;44.552;-0.848;2023-11-19T10:48:39;15.50;99.90
42743;DHT22;28397;44.552;-0.848;2023-11-19T10:51:07;15.60;99.90
42743;DHT22;28397;44.552;-0.848;2023-11-19T10:53:36;15.90;99.90
42743;DHT22;28397;44.552;-0.848;2023-11-19T10:56:05;16.10;99.90
42743;DHT22;28397;44.552;-0.848;2023-11-19T10:58:33;16.20;99.90
42743;DHT22;28397;44.552;-0.848;2023-11-19T11:01:09;16.40;99.90
42743;DHT22;28397;44.552;-0.848;2023-11-19T11:03:40;16.40;99.90
42743;DHT22;28397;44.552;-0.848;2023-11-19T11:06:06;16.50;99.90
42743;DHT22;28397;44.552;-0.848;2023-11-19T11:08:32;16.50;99.90
42743;DHT22;28397;44.552;-0.848;2023-11-19T11:11:02;16.70;99.90
42743;DHT22;28397;44.552;-0.848;2023-11-19T11:13:30;16.70;99.90
42743;DHT22;28397;44.552;-0.848;2023-11-19T11:15:57;16.80;99.90
42743;DHT22;28397;44.552;-0.848;2023-11-19T11:18:26;16.90;99.90
42743;DHT22;28397;44.552;-0.848;2023-11-19T11:20:58;16.70;99.90
42743;DHT22;28397;44.552;-0.848;2023-11-19T11:29:04;16.30;99.90
42743;DHT22;28397;44.552;-0.848;2023-11-19T11:34:19;16.20;99.90
42743;DHT22;28397;44.552;-0.848;2023-11-19T11:39:34;16.30;99.90
42743;DHT22;28397;44.552;-0.848;2023-11-19T11:44:59;16.40;99.90
42743;DHT22;28397;44.552;-0.848;2023-11-19T11:47:26;16.40;99.90
42743;DHT22;28397;44.552;-0.848;2023-11-19T11:49:52;16.50;99.90
42743;DHT22;28397;44.552;-0.848;2023-11-19T11:52:19;16.60;99.90
42743;DHT22;28397;44.552;-0.848;2023-11-19T11:54:45;16.80;99.90
42743;DHT22;28397;44.552;-0.848;2023-11-19T11:57:12;16.80;99.90
42743;DHT22;28397;44.552;-0.848;2023-11-19T12:02:12;16.90;99.90
42743;DHT22;28397;44.552;-0.848;2023-11-19T12:04:40;16.90;99.90
42743;DHT22;28397;44.552;-0.848;2023-11-19T12:07:08;16.90;99.90
42743;DHT22;28397;44.552;-0.848;2023-11-19T12:09:36;16.90;99.90
42743;DHT22;28397;44.552;-0.848;2023-11-19T12:15:09;16.90;99.90
42743;DHT22;28397;44.552;-0.848;2023-11-19T12:17:49;16.90;99.90
42743;DHT22;28397;44.552;-0.848;2023-11-19T12:20:19;16.90;99.90
42743;DHT22;28397;44.552;-0.848;2023-11-19T12:22:46;16.90;99.90
42743;DHT22;28397;44.552;-0.848;2023-11-19T12:25:13;17.00;99.90
42743;DHT22;28397;44.552;-0.848;2023-11-19T12:27:44;17.10;99.90
42743;DHT22;28397;44.552;-0.848;2023-11-19T12:30:10;17.10;99.90
42743;DHT22;28397;44.552;-0.848;2023-11-19T12:32:43;17.40;99.90
42743;DHT22;28397;44.552;-0.848;2023-11-19T12:35:10;17.50;99.90
42743;DHT22;28397;44.552;-0.848;2023-11-19T12:37:40;17.70;99.90
42743;DHT22;28397;44.552;-0.848;2023-11-19T12:42:37;17.70;99.90
42743;DHT22;28397;44.552;-0.848;2023-11-19T12:45:04;17.80;99.90
42743;DHT22;28397;44.552;-0.848;2023-11-19T12:47:30;17.80;99.90
42743;DHT22;28397;44.552;-0.848;2023-11-19T12:49:56;17.90;99.90
42743;DHT22;28397;44.552;-0.848;2023-11-19T12:52:22;17.90;99.90
42743;DHT22;28397;44.552;-0.848;2023-11-19T12:54:49;18.00;99.90
42743;DHT22;28397;44.552;-0.848;2023-11-19T12:57:15;18.10;99.90
42743;DHT22;28397;44.552;-0.848;2023-11-19T12:59:41;18.10;99.90
42743;DHT22;28397;44.552;-0.848;2023-11-19T13:02:08;18.10;99.90
42743;DHT22;28397;44.552;-0.848;2023-11-19T13:04:34;18.30;99.90
42743;DHT22;28397;44.552;-0.848;2023-11-19T13:07:00;18.30;99.90
42743;DHT22;28397;44.552;-0.848;2023-11-19T13:09:27;18.20;99.90
42743;DHT22;28397;44.552;-0.848;2023-11-19T13:11:54;18.00;99.90
42743;DHT22;28397;44.552;-0.848;2023-11-19T13:14:20;18.00;99.90
42743;DHT22;28397;44.552;-0.848;2023-11-19T13:16:46;17.90;99.90
42743;DHT22;28397;44.552;-0.848;2023-11-19T13:19:13;17.90;99.90
42743;DHT22;28397;44.552;-0.848;2023-11-19T13:21:39;17.90;99.90
42743;DHT22;28397;44.552;-0.848;2023-11-19T13:24:08;17.90;99.90
42743;DHT22;28397;44.552;-0.848;2023-11-19T13:26:34;18.00;99.90
42743;DHT22;28397;44.552;-0.848;2023-11-19T13:29:00;18.00;99.90
42743;DHT22;28397;44.552;-0.848;2023-11-19T13:31:26;17.90;99.90
42743;DHT22;28397;44.552;-0.848;2023-11-19T13:33:52;18.00;99.90
42743;DHT22;28397;44.552;-0.848;2023-11-19T13:36:17;18.00;99.90
42743;DHT22;28397;44.552;-0.848;2023-11-19T13:38:44;18.00;99.90
42743;DHT22;28397;44.552;-0.848;2023-11-19T13:41:10;18.00;99.90
42743;DHT22;28397;44.552;-0.848;2023-11-19T13:43:37;18.00;99.90
42743;DHT22;28397;44.552;-0.848;2023-11-19T13:46:03;17.90;99.90
42743;DHT22;28397;44.552;-0.848;2023-11-19T13:48:29;17.90;99.90
42743;DHT22;28397;44.552;-0.848;2023-11-19T13:50:55;18.00;99.90
42743;DHT22;28397;44.552;-0.848;2023-11-19T13:53:22;18.10;99.90
42743;DHT22;28397;44.552;-0.848;2023-11-19T13:55:49;18.10;99.90
42743;DHT22;28397;44.552;-0.848;2023-11-19T13:58:15;18.10;99.90
42743;DHT22;28397;44.552;-0.848;2023-11-19T14:00:41;18.00;99.90
42743;DHT22;28397;44.552;-0.848;2023-11-19T14:03:07;17.90;99.90
42743;DHT22;28397;44.552;-0.848;2023-11-19T14:05:34;17.90;99.90
42743;DHT22;28397;44.552;-0.848;2023-11-19T14:08:00;18.00;99.90
42743;DHT22;28397;44.552;-0.848;2023-11-19T14:10:26;17.90;99.90
42743;DHT22;28397;44.552;-0.848;2023-11-19T14:12:52;18.00;99.90
42743;DHT22;28397;44.552;-0.848;2023-11-19T14:15:18;18.20;99.90
42743;DHT22;28397;44.552;-0.848;2023-11-19T14:17:43;18.30;99.90
42743;DHT22;28397;44.552;-0.848;2023-11-19T14:20:09;18.40;99.90
42743;DHT22;28397;44.552;-0.848;2023-11-19T14:22:45;18.50;99.90
42743;DHT22;28397;44.552;-0.848;2023-11-19T14:25:13;18.50;99.90
42743;DHT22;28397;44.552;-0.848;2023-11-19T14:27:40;18.60;99.90
42743;DHT22;28397;44.552;-0.848;2023-11-19T14:30:08;18.60;99.90
42743;DHT22;28397;44.552;-0.848;2023-11-19T14:32:35;18.60;99.90
42743;DHT22;28397;44.552;-0.848;2023-11-19T14:35:01;18.60;99.90
42743;DHT22;28397;44.552;-0.848;2023-11-19T14:37:29;18.70;99.90
42743;DHT22;28397;44.552;-0.848;2023-11-19T14:39:56;18.60;99.90
42743;DHT22;28397;44.552;-0.848;2023-11-19T14:42:23;18.60;99.90
42743;DHT22;28397;44.552;-0.848;2023-11-19T14:44:51;18.60;99.90
42743;DHT22;28397;44.552;-0.848;2023-11-19T14:47:18;18.60;99.90
42743;DHT22;28397;44.552;-0.848;2023-11-19T14:49:44;18.50;99.90
42743;DHT22;28397;44.552;-0.848;2023-11-19T14:52:10;18.30;99.90
42743;DHT22;28397;44.552;-0.848;2023-11-19T14:54:36;18.20;99.90
42743;DHT22;28397;44.552;-0.848;2023-11-19T14:57:04;18.10;99.90
42743;DHT22;28397;44.552;-0.848;2023-11-19T14:59:29;18.00;99.90
42743;DHT22;28397;44.552;-0.848;2023-11-19T15:01:55;18.00;99.90
42743;DHT22;28397;44.552;-0.848;2023-11-19T15:04:21;17.90;99.90
42743;DHT22;28397;44.552;-0.848;2023-11-19T15:06:46;17.90;99.90
42743;DHT22;28397;44.552;-0.848;2023-11-19T15:09:12;17.80;99.90
42743;DHT22;28397;44.552;-0.848;2023-11-19T15:11:43;17.80;99.90
42743;DHT22;28397;44.552;-0.848;2023-11-19T15:14:12;17.80;99.90
42743;DHT22;28397;44.552;-0.848;2023-11-19T15:16:40;17.70;99.90
42743;DHT22;28397;44.552;-0.848;2023-11-19T15:19:06;17.70;99.90
42743;DHT22;28397;44.552;-0.848;2023-11-19T15:21:33;17.60;99.90
42743;DHT22;28397;44.552;-0.848;2023-11-19T15:24:00;17.60;99.90
42743;DHT22;28397;44.552;-0.848;2023-11-19T15:26:25;17.60;99.90
42743;DHT22;28397;44.552;-0.848;2023-11-19T15:28:51;17.70;99.90
42743;DHT22;28397;44.552;-0.848;2023-11-19T15:31:22;17.80;99.90
42743;DHT22;28397;44.552;-0.848;2023-11-19T15:33:47;17.80;99.90